Time;durP1;ratioP1;P1;durP2;ratioP2;P2;SDS_P1;SDS_P2;PMS_P1;PMS_P2;Temp;Humidity;BMP_temperature;BMP_pressure;BME280_temperature;BME280_humidity;BME280_pressure;Samples;Min_cycle;Max_cycle;Signal;HPM_P1;HPM_P2
2023/10/15 00:00:01;;;;;;;4.00;1.30;;;;;;;;;;12868672;23;19916;-75
2023/10/15 00:05:09;;;;;;;2.25;1.35;;;;;;;;;;12854421;23;20053;-75
2023/10/15 00:10:18;;;;;;;4.63;1.60;;;;;;;;;;12851769;23;20344;-75
2023/10/15 00:15:24;;;;;;;2.28;1.15;;;;;;;;;;12851702;23;20082;-75
2023/10/15 00:20:34;;;;;;;3.50;1.07;;;;;;;;;;12853337;23;20112;-75
2023/10/15 00:25:41;;;;;;;1.55;1.20;;;;;;;;;;12853512;23;20108;-75
2023/10/15 00:30:46;;;;;;;2.85;1.13;;;;;;;;;;12850615;23;20087;-76
2023/10/15 00:36:05;;;;;;;2.28;0.98;;;;;;;;;;12851644;23;20029;-77
2023/10/15 00:41:13;;;;;;;1.75;1.08;;;;;;;;;;12850695;23;20024;-75
2023/10/15 00:46:21;;;;;;;1.58;1.08;;;;;;;;;;12862472;23;20024;-75
2023/10/15 00:51:30;;;;;;;3.03;1.02;;;;;;;;;;12850847;23;20020;-75
2023/10/15 00:56:39;;;;;;;1.80;0.80;;;;;;;;;;12850926;23;20056;-75
2023/10/15 01:02:02;;;;;;;1.67;0.68;;;;;;;;;;12851209;23;20028;-75
2023/10/15 01:07:21;;;;;;;1.60;0.63;;;;;;;;;;12851198;23;20514;-75
2023/10/15 01:12:30;;;;;;;2.42;1.05;;;;;;;;;;12856932;23;20028;-75
2023/10/15 01:17:37;;;;;;;2.50;0.70;;;;;;;;;;12849799;23;20503;-75
2023/10/15 01:22:46;;;;;;;1.73;0.90;;;;;;;;;;12788823;23;20072;-75
2023/10/15 01:27:54;;;;;;;1.42;0.70;;;;;;;;;;12783678;23;20033;-76
2023/10/15 01:33:05;;;;;;;1.40;0.73;;;;;;;;;;12791811;23;20025;-75
2023/10/15 01:38:10;;;;;;;1.55;0.70;;;;;;;;;;12791767;23;20033;-76
2023/10/15 01:43:16;;;;;;;2.90;1.13;;;;;;;;;;12790432;23;20364;-75
2023/10/15 01:48:25;;;;;;;3.83;1.00;;;;;;;;;;12789767;23;20556;-75
2023/10/15 01:53:31;;;;;;;2.17;0.90;;;;;;;;;;12787144;23;20025;-75
2023/10/15 01:58:39;;;;;;;2.10;0.80;;;;;;;;;;12778121;23;20040;-75
2023/10/15 02:09:43;;;;;;;0.85;0.60;;;;;;;;;;12774327;23;20029;-75
2023/10/15 02:14:51;;;;;;;1.33;0.60;;;;;;;;;;12800631;23;20039;-75
2023/10/15 02:19:58;;;;;;;1.90;0.60;;;;;;;;;;12865647;23;20036;-75
2023/10/15 02:25:04;;;;;;;1.55;0.90;;;;;;;;;;12847570;23;20024;-75
2023/10/15 02:30:13;;;;;;;1.73;0.70;;;;;;;;;;12847782;23;20063;-76
2023/10/15 02:35:24;;;;;;;2.47;0.80;;;;;;;;;;12864257;23;20585;-76
2023/10/15 02:40:55;;;;;;;2.63;0.82;;;;;;;;;;12848817;23;20036;-75
2023/10/15 02:46:17;;;;;;;1.42;0.70;;;;;;;;;;12848346;23;20025;-75
2023/10/15 02:51:27;;;;;;;2.38;0.95;;;;;;;;;;12848833;23;20048;-75
2023/10/15 02:56:30;;;;;;;1.33;0.65;;;;;;;;;;12859369;23;20032;-75
2023/10/15 03:01:35;;;;;;;1.38;0.77;;;;;;;;;;12848484;23;20055;-76
2023/10/15 03:06:48;;;;;;;1.13;0.82;;;;;;;;;;12848406;23;20024;-75
2023/10/15 03:11:54;;;;;;;1.38;0.90;;;;;;;;;;12856371;23;20626;-75
2023/10/15 03:17:24;;;;;;;0.95;0.57;;;;;;;;;;12845839;23;20032;-75
2023/10/15 03:22:39;;;;;;;1.23;0.60;;;;;;;;;;12833114;23;20055;-76
2023/10/15 03:27:54;;;;;;;1.23;0.77;;;;;;;;;;12841279;23;20025;-75
2023/10/15 03:33:13;;;;;;;1.80;0.80;;;;;;;;;;12776393;23;20036;-76
2023/10/15 03:38:27;;;;;;;0.77;0.65;;;;;;;;;;12783974;23;20036;-76
2023/10/15 03:43:46;;;;;;;2.22;0.90;;;;;;;;;;12790311;23;20033;-75
2023/10/15 03:48:53;;;;;;;1.98;0.68;;;;;;;;;;12873046;23;20024;-75
2023/10/15 03:54:06;;;;;;;;;;;;;;;;;;12873559;23;20016;-75
2023/10/15 03:59:11;;;;;;;1.90;0.73;;;;;;;;;;12850136;23;20339;-76
2023/10/15 04:04:24;;;;;;;1.50;0.80;;;;;;;;;;12849366;23;20144;-76
2023/10/15 04:09:34;;;;;;;1.65;0.60;;;;;;;;;;12867271;23;20027;-76
2023/10/15 04:14:43;;;;;;;2.80;0.90;;;;;;;;;;12868174;23;20243;-76
2023/10/15 04:19:48;;;;;;;3.40;0.82;;;;;;;;;;12850420;23;20071;-76
2023/10/15 04:24:53;;;;;;;0.95;0.73;;;;;;;;;;12867242;23;20104;-75
2023/10/15 04:30:00;;;;;;;1.40;0.90;;;;;;;;;;12851039;23;20103;-76
2023/10/15 04:35:11;;;;;;;0.95;0.63;;;;;;;;;;12852432;23;20028;-76
2023/10/15 04:40:23;;;;;;;2.00;0.85;;;;;;;;;;12835300;23;20404;-76
2023/10/15 04:45:35;;;;;;;1.35;0.80;;;;;;;;;;12836851;23;20032;-76
2023/10/15 04:50:45;;;;;;;1.38;0.60;;;;;;;;;;12850569;23;20514;-75
2023/10/15 04:55:54;;;;;;;0.95;0.65;;;;;;;;;;12850947;23;20055;-76
2023/10/15 05:01:02;;;;;;;2.60;0.80;;;;;;;;;;12852870;23;20490;-76
2023/10/15 05:06:10;;;;;;;1.63;0.90;;;;;;;;;;12851244;23;20129;-75
2023/10/15 05:11:21;;;;;;;3.03;0.85;;;;;;;;;;12850630;23;20051;-76
2023/10/15 05:16:27;;;;;;;1.95;0.93;;;;;;;;;;12860870;23;20035;-75
2023/10/15 05:21:33;;;;;;;0.93;0.68;;;;;;;;;;12851995;23;20408;-75
2023/10/15 05:26:37;;;;;;;0.80;0.60;;;;;;;;;;12852198;23;20112;-76
2023/10/15 05:31:44;;;;;;;0.80;0.60;;;;;;;;;;12788947;23;20044;-76
2023/10/15 05:36:54;;;;;;;2.92;1.23;;;;;;;;;;12797405;23;20311;-75
2023/10/15 05:42:00;;;;;;;3.00;0.98;;;;;;;;;;12795764;23;20088;-76
2023/10/15 05:47:04;;;;;;;2.88;1.00;;;;;;;;;;12785163;23;20044;-76
2023/10/15 05:52:11;;;;;;;1.85;1.02;;;;;;;;;;12789905;23;20037;-75
2023/10/15 05:57:19;;;;;;;1.35;1.10;;;;;;;;;;12787692;23;20549;-76
2023/10/15 06:02:25;;;;;;;0.95;0.80;;;;;;;;;;12763128;23;20037;-76
2023/10/15 06:07:32;;;;;;;3.08;0.95;;;;;;;;;;12771237;23;20112;-76
2023/10/15 06:12:44;;;;;;;2.35;1.02;;;;;;;;;;12792695;23;20408;-76
2023/10/15 06:17:50;;;;;;;1.88;0.90;;;;;;;;;;12844341;23;20035;-76
2023/10/15 06:22:56;;;;;;;1.60;0.90;;;;;;;;;;12849786;23;20025;-76
2023/10/15 06:28:01;;;;;;;;;;;;;;;;;;12854742;23;20024;-76
2023/10/15 06:33:05;;;;;;;2.60;0.65;;;;;;;;;;12852858;23;19916;-76
2023/10/15 06:38:10;;;;;;;2.58;1.02;;;;;;;;;;12851243;23;20051;-76
2023/10/15 06:43:15;;;;;;;2.75;1.55;;;;;;;;;;12851681;23;20020;-76
2023/10/15 06:48:22;;;;;;;1.75;1.10;;;;;;;;;;12850045;23;20083;-76
2023/10/15 06:53:27;;;;;;;2.90;1.20;;;;;;;;;;12850135;23;20025;-76
2023/10/15 06:58:33;;;;;;;3.10;1.30;;;;;;;;;;12849341;23;20080;-76
2023/10/15 07:03:37;;;;;;;2.20;1.13;;;;;;;;;;12852312;23;20499;-76
2023/10/15 07:08:42;;;;;;;1.60;1.10;;;;;;;;;;12850679;23;20115;-76
2023/10/15 07:13:45;;;;;;;3.50;1.48;;;;;;;;;;12871258;23;20019;-76
2023/10/15 07:18:49;;;;;;;1.98;1.10;;;;;;;;;;12873518;23;20020;-76
2023/10/15 07:23:54;;;;;;;1.70;1.13;;;;;;;;;;12855181;23;20023;-76
2023/10/15 07:28:58;;;;;;;5.38;1.83;;;;;;;;;;12853737;23;20024;-75
2023/10/15 07:34:01;;;;;;;7.25;2.30;;;;;;;;;;12853139;23;20020;-76
2023/10/15 07:39:07;;;;;;;5.22;2.35;;;;;;;;;;12854437;23;20028;-75
2023/10/15 07:44:13;;;;;;;5.30;2.10;;;;;;;;;;12852783;22;20463;-78
2023/10/15 07:49:17;;;;;;;4.85;1.77;;;;;;;;;;12835605;23;20104;-78
2023/10/15 07:54:22;;;;;;;4.72;1.55;;;;;;;;;;12817460;23;20021;-78
2023/10/15 07:59:25;;;;;;;4.85;1.83;;;;;;;;;;12828388;23;20029;-78
2023/10/15 08:04:29;;;;;;;6.07;1.60;;;;;;;;;;12825886;23;20491;-78
2023/10/15 08:09:36;;;;;;;4.07;1.63;;;;;;;;;;12819273;23;20028;-77
2023/10/15 08:14:39;;;;;;;7.63;1.77;;;;;;;;;;12820219;23;20040;-78
2023/10/15 08:19:43;;;;;;;2.72;1.38;;;;;;;;;;12785504;23;20043;-78
2023/10/15 08:24:47;;;;;;;3.00;1.55;;;;;;;;;;12803084;23;20017;-78
2023/10/15 08:29:51;;;;;;;5.72;1.73;;;;;;;;;;12819045;23;20036;-78
2023/10/15 08:34:54;;;;;;;2.35;1.35;;;;;;;;;;12818825;23;20325;-78
2023/10/15 08:39:59;;;;;;;2.63;1.02;;;;;;;;;;12804049;23;20021;-77
2023/10/15 08:45:04;;;;;;;3.38;1.23;;;;;;;;;;12813855;23;20029;-78
2023/10/15 08:50:10;;;;;;;4.30;1.30;;;;;;;;;;12810536;23;20036;-78
2023/10/15 08:55:16;;;;;;;3.08;1.23;;;;;;;;;;12803250;23;20586;-79
2023/10/15 09:00:26;;;;;;;4.72;1.52;;;;;;;;;;12806325;23;20036;-75
2023/10/15 09:05:34;;;;;;;2.30;1.10;;;;;;;;;;12801647;23;20361;-77
2023/10/15 09:10:41;;;;;;;2.58;0.75;;;;;;;;;;12804904;23;20029;-75
2023/10/15 09:15:46;;;;;;;1.48;0.98;;;;;;;;;;12800738;23;20075;-78
2023/10/15 09:20:51;;;;;;;1.98;0.90;;;;;;;;;;12789868;23;20605;-76
2023/10/15 09:25:56;;;;;;;1.13;0.70;;;;;;;;;;12787813;23;20033;-75
2023/10/15 09:31:03;;;;;;;1.42;0.82;;;;;;;;;;12797743;23;20043;-76
2023/10/15 09:36:07;;;;;;;1.95;1.08;;;;;;;;;;12786858;23;20364;-75
2023/10/15 09:41:12;;;;;;;0.98;0.55;;;;;;;;;;12785692;23;20120;-75
2023/10/15 09:46:20;;;;;;;2.72;1.40;;;;;;;;;;12797607;23;20418;-75
2023/10/15 09:51:24;;;;;;;1.45;0.60;;;;;;;;;;12788756;23;20032;-78
2023/10/15 09:56:30;;;;;;;0.55;0.55;;;;;;;;;;12804860;23;20473;-79
2023/10/15 10:01:36;;;;;;;;;;;;;;;;;;12794222;23;20036;-76
2023/10/15 10:07:04;;;;;;;3.10;0.90;;;;;;;;;;12787283;23;19975;-76
2023/10/15 10:12:23;;;;;;;2.35;0.68;;;;;;;;;;12792343;23;20104;-75
2023/10/15 10:17:29;;;;;;;2.25;0.70;;;;;;;;;;12790935;23;20097;-76
2023/10/15 10:22:32;;;;;;;0.57;0.50;;;;;;;;;;12789964;23;20032;-75
2023/10/15 10:27:43;;;;;;;1.80;0.85;;;;;;;;;;12791328;23;20108;-75
2023/10/15 10:32:46;;;;;;;5.10;1.30;;;;;;;;;;12791246;23;20132;-78
2023/10/15 10:38:02;;;;;;;4.75;0.80;;;;;;;;;;12798268;23;20036;-75
2023/10/15 10:43:15;;;;;;;;;;;;;;;;;;12788977;23;20476;-75
2023/10/15 10:48:24;;;;;;;1.67;0.80;;;;;;;;;;12788175;23;19979;-75
2023/10/15 10:53:28;;;;;;;3.63;0.40;;;;;;;;;;12794732;23;20020;-76
2023/10/15 10:58:34;;;;;;;1.52;0.50;;;;;;;;;;12792597;23;20040;-76
2023/10/15 11:03:37;;;;;;;1.00;0.30;;;;;;;;;;12792941;23;20052;-76
2023/10/15 11:08:41;;;;;;;0.80;0.60;;;;;;;;;;12812192;23;20017;-76
2023/10/15 11:13:46;;;;;;;1.52;0.93;;;;;;;;;;12811813;23;20035;-76
2023/10/15 11:18:50;;;;;;;2.03;0.50;;;;;;;;;;12811121;23;20640;-76
2023/10/15 11:23:53;;;;;;;0.88;0.45;;;;;;;;;;12764963;23;20013;-78
2023/10/15 11:28:58;;;;;;;1.77;0.60;;;;;;;;;;12811645;23;20033;-76
2023/10/15 11:34:01;;;;;;;0.80;0.50;;;;;;;;;;12790157;23;20037;-76
2023/10/15 11:39:08;;;;;;;1.65;0.60;;;;;;;;;;12809249;23;20113;-76
2023/10/15 11:44:13;;;;;;;1.27;0.70;;;;;;;;;;12790842;23;20029;-76
2023/10/15 11:49:22;;;;;;;0.98;0.40;;;;;;;;;;12808243;23;20048;-76
2023/10/15 11:54:28;;;;;;;1.20;0.50;;;;;;;;;;12790348;23;20052;-76
2023/10/15 11:59:34;;;;;;;;;;;;;;;;;;12789881;23;20051;-76
2023/10/15 12:04:38;;;;;;;1.10;0.60;;;;;;;;;;12788696;23;19916;-77
2023/10/15 12:09:44;;;;;;;1.30;0.47;;;;;;;;;;12805751;23;20029;-76
2023/10/15 12:14:49;;;;;;;0.40;0.40;;;;;;;;;;12786693;23;20419;-76
2023/10/15 12:19:52;;;;;;;2.72;1.10;;;;;;;;;;12805796;23;20101;-76
2023/10/15 12:25:07;;;;;;;0.85;0.55;;;;;;;;;;12787377;23;20032;-76
2023/10/15 12:30:23;;;;;;;2.72;0.52;;;;;;;;;;12802097;23;20041;-76
2023/10/15 12:35:28;;;;;;;0.93;0.70;;;;;;;;;;12802876;23;20028;-76
2023/10/15 12:40:32;;;;;;;2.13;0.82;;;;;;;;;;12803747;23;20479;-76
2023/10/15 12:45:36;;;;;;;1.63;0.90;;;;;;;;;;12804409;23;20028;-76
2023/10/15 12:50:40;;;;;;;4.93;1.40;;;;;;;;;;12802926;23;20029;-76
2023/10/15 12:55:43;;;;;;;2.22;0.88;;;;;;;;;;12802515;23;20096;-76
2023/10/15 13:00:51;;;;;;;3.58;1.25;;;;;;;;;;12802031;23;20036;-78
2023/10/15 13:05:55;;;;;;;2.70;1.30;;;;;;;;;;12791606;23;20021;-76
2023/10/15 13:10:58;;;;;;;3.45;1.13;;;;;;;;;;12788180;23;20060;-76
2023/10/15 13:16:03;;;;;;;2.67;1.40;;;;;;;;;;12789564;23;20041;-76
2023/10/15 13:21:08;;;;;;;2.40;1.27;;;;;;;;;;12790921;23;20105;-75
2023/10/15 13:26:12;;;;;;;3.72;0.82;;;;;;;;;;12790537;23;20029;-76
2023/10/15 13:31:16;;;;;;;1.60;0.85;;;;;;;;;;12799371;23;20108;-77
2023/10/15 13:36:19;;;;;;;1.23;0.57;;;;;;;;;;12806509;23;20080;-78
2023/10/15 13:47:21;;;;;;;1.70;0.82;;;;;;;;;;12934673;22;20485;-76
2023/10/15 13:52:25;;;;;;;2.13;0.70;;;;;;;;;;12894813;23;20024;-75
2023/10/15 13:58:05;;;;;;;1.55;0.70;;;;;;;;;;12910676;22;20020;-76
2023/10/15 14:10:01;;;;;;;1.17;0.50;;;;;;;;;;12825694;22;20020;-86
2023/10/15 14:15:06;;;;;;;1.60;0.60;;;;;;;;;;12836110;23;20100;-86
2023/10/15 14:20:14;;;;;;;1.67;0.65;;;;;;;;;;12836663;23;20031;-86
2023/10/15 14:25:20;;;;;;;1.65;0.63;;;;;;;;;;12822351;23;20413;-86
2023/10/15 14:30:24;;;;;;;1.37;0.70;;;;;;;;;;12833322;23;20554;-86
2023/10/15 14:35:28;;;;;;;1.70;0.88;;;;;;;;;;12836460;23;20402;-87
2023/10/15 14:40:34;;;;;;;3.75;1.05;;;;;;;;;;12836918;23;20020;-86
2023/10/15 14:45:38;;;;;;;;;;;;;;;;;;12836075;23;20129;-86
2023/10/15 14:50:41;;;;;;;0.52;0.52;;;;;;;;;;12834801;23;19922;-85
2023/10/15 14:55:46;;;;;;;1.08;0.65;;;;;;;;;;12837661;23;20028;-86
2023/10/15 15:00:52;;;;;;;0.75;0.50;;;;;;;;;;12835492;23;20044;-86
2023/10/15 15:05:58;;;;;;;0.43;0.32;;;;;;;;;;12837379;23;20032;-86
2023/10/15 15:11:03;;;;;;;1.50;0.80;;;;;;;;;;12835541;23;20027;-85
2023/10/15 15:16:08;;;;;;;1.00;0.50;;;;;;;;;;12832146;23;20024;-87
2023/10/15 15:21:11;;;;;;;1.35;0.63;;;;;;;;;;12833333;23;20024;-86
2023/10/15 15:26:19;;;;;;;1.40;0.70;;;;;;;;;;12834266;23;20079;-86
2023/10/15 15:31:24;;;;;;;2.30;0.60;;;;;;;;;;12817416;23;20477;-87
2023/10/15 15:36:33;;;;;;;2.90;1.13;;;;;;;;;;12823193;23;20028;-87
2023/10/15 15:41:41;;;;;;;2.78;1.00;;;;;;;;;;12845685;22;20031;-86
2023/10/15 15:47:10;;;;;;;0.85;0.55;;;;;;;;;;12831710;23;20044;-87
2023/10/15 16:03:39;;;;;;;1.55;0.90;;;;;;;;;;12834084;23;20044;-88
2023/10/15 16:09:12;;;;;;;1.40;0.70;;;;;;;;;;12710863;23;20021;-86
2023/10/15 16:14:24;;;;;;;0.55;0.52;;;;;;;;;;12739721;23;20052;-87
2023/10/15 16:19:28;;;;;;;4.67;0.77;;;;;;;;;;12741039;23;20021;-86
2023/10/15 16:24:33;;;;;;;1.30;0.70;;;;;;;;;;12750744;23;20036;-87
2023/10/15 16:29:42;;;;;;;1.00;0.60;;;;;;;;;;12833573;23;20065;-87
2023/10/15 16:34:46;;;;;;;1.17;0.65;;;;;;;;;;12804394;23;20029;-87
2023/10/15 16:39:50;;;;;;;0.40;0.38;;;;;;;;;;12837675;23;20362;-87
2023/10/15 16:44:56;;;;;;;0.60;0.40;;;;;;;;;;12832521;23;20104;-87
2023/10/15 16:50:00;;;;;;;0.52;0.32;;;;;;;;;;12835966;23;20020;-88
2023/10/15 16:55:13;;;;;;;0.95;0.32;;;;;;;;;;12831422;23;20079;-87
2023/10/15 17:00:19;;;;;;;0.85;0.40;;;;;;;;;;12830386;23;20505;-87
2023/10/15 17:05:25;;;;;;;0.63;0.40;;;;;;;;;;12833641;23;20048;-87
2023/10/15 17:10:29;;;;;;;0.47;0.40;;;;;;;;;;12795043;23;20025;-87
2023/10/15 17:15:36;;;;;;;2.05;0.88;;;;;;;;;;12810479;23;20025;-87
2023/10/15 17:20:49;;;;;;;1.52;0.70;;;;;;;;;;12844964;23;20854;-87
2023/10/15 17:25:54;;;;;;;1.63;0.70;;;;;;;;;;12832823;23;20036;-87
2023/10/15 17:31:10;;;;;;;2.20;1.10;;;;;;;;;;12832468;23;20821;-87
2023/10/15 17:36:24;;;;;;;1.33;0.80;;;;;;;;;;12832660;23;20705;-87
2023/10/15 17:41:29;;;;;;;1.63;0.85;;;;;;;;;;12808142;23;20032;-84
2023/10/15 17:46:47;;;;;;;2.08;0.93;;;;;;;;;;12828728;23;20091;-84
2023/10/15 17:51:50;;;;;;;1.33;0.70;;;;;;;;;;12831637;23;20044;-84
2023/10/15 17:56:58;;;;;;;1.42;0.60;;;;;;;;;;12837716;23;20025;-84
2023/10/15 18:07:24;;;;;;;2.97;1.85;;;;;;;;;;12828508;23;20080;-85
2023/10/15 18:12:28;;;;;;;4.13;2.78;;;;;;;;;;12833810;23;20032;-84
2023/10/15 18:17:33;;;;;;;4.63;2.55;;;;;;;;;;12828418;23;20013;-85
2023/10/15 18:22:49;;;;;;;5.90;2.50;;;;;;;;;;12826526;23;20091;-85
2023/10/15 18:27:59;;;;;;;3.58;2.42;;;;;;;;;;12814236;23;20075;-84
2023/10/15 18:33:05;;;;;;;4.63;3.00;;;;;;;;;;12829190;23;20032;-84
2023/10/15 18:38:08;;;;;;;4.95;3.42;;;;;;;;;;12827238;23;20039;-84
2023/10/15 18:43:12;;;;;;;5.70;3.33;;;;;;;;;;12832241;23;20020;-84
2023/10/15 18:48:17;;;;;;;11.60;3.72;;;;;;;;;;12833729;23;20020;-84
2023/10/15 18:53:20;;;;;;;6.20;3.85;;;;;;;;;;12823703;23;20104;-84
2023/10/15 18:58:24;;;;;;;6.88;3.45;;;;;;;;;;12831293;23;20024;-84
2023/10/15 19:03:29;;;;;;;6.40;3.35;;;;;;;;;;12828673;23;20521;-84
2023/10/15 19:08:32;;;;;;;4.28;2.95;;;;;;;;;;12829937;23;20024;-86
2023/10/15 19:13:36;;;;;;;6.18;2.50;;;;;;;;;;12835855;23;20036;-84
2023/10/15 19:18:42;;;;;;;4.22;2.60;;;;;;;;;;12837315;23;20044;-84
2023/10/15 19:23:45;;;;;;;3.70;2.25;;;;;;;;;;12836159;23;20021;-84
2023/10/15 19:28:50;;;;;;;3.28;1.90;;;;;;;;;;12837853;23;20672;-87
2023/10/15 19:33:55;;;;;;;3.45;2.00;;;;;;;;;;12841687;23;20020;-86
2023/10/15 19:38:59;;;;;;;2.47;1.67;;;;;;;;;;12861388;23;20408;-87
2023/10/15 19:44:02;;;;;;;3.85;2.17;;;;;;;;;;12887714;22;20103;-78
2023/10/15 19:49:07;;;;;;;3.05;1.90;;;;;;;;;;12909570;23;20039;-78
2023/10/15 19:54:11;;;;;;;3.10;1.73;;;;;;;;;;12859620;23;20048;-78
2023/10/15 19:59:14;;;;;;;2.33;1.60;;;;;;;;;;12861233;23;20017;-78
2023/10/15 20:04:19;;;;;;;2.65;1.52;;;;;;;;;;12858868;23;20513;-78
2023/10/15 20:09:22;;;;;;;3.03;1.98;;;;;;;;;;12872500;23;20079;-78
2023/10/15 20:14:25;;;;;;;3.90;1.88;;;;;;;;;;12859683;23;20032;-78
2023/10/15 20:19:31;;;;;;;4.95;2.40;;;;;;;;;;12853204;23;20034;-77
2023/10/15 20:24:36;;;;;;;4.93;2.67;;;;;;;;;;12874784;23;20100;-78
2023/10/15 20:29:39;;;;;;;3.15;1.95;;;;;;;;;;12872886;23;20024;-78
2023/10/15 20:34:44;;;;;;;2.40;1.77;;;;;;;;;;12858971;23;20099;-77
2023/10/15 20:39:50;;;;;;;4.18;2.03;;;;;;;;;;12871031;23;20076;-78
2023/10/15 20:44:54;;;;;;;3.05;1.40;;;;;;;;;;12859498;23;20112;-77
2023/10/15 20:49:59;;;;;;;2.80;1.70;;;;;;;;;;12872242;23;20779;-78
2023/10/15 20:55:04;;;;;;;3.15;1.13;;;;;;;;;;12872783;23;20480;-78
2023/10/15 21:00:11;;;;;;;2.42;1.20;;;;;;;;;;12873501;23;20115;-78
2023/10/15 21:05:17;;;;;;;2.13;1.10;;;;;;;;;;12871078;23;20025;-78
2023/10/15 21:10:22;;;;;;;3.38;1.52;;;;;;;;;;12857900;23;20029;-78
2023/10/15 21:15:25;;;;;;;2.67;1.90;;;;;;;;;;12858216;23;20271;-78
2023/10/15 21:20:31;;;;;;;2.83;1.80;;;;;;;;;;12855093;23;20503;-78
2023/10/15 21:25:35;;;;;;;2.40;1.70;;;;;;;;;;12859267;23;20066;-78
2023/10/15 21:30:38;;;;;;;2.78;1.90;;;;;;;;;;12867887;23;20084;-78
2023/10/15 21:35:42;;;;;;;2.45;1.50;;;;;;;;;;12856198;23;20052;-78
2023/10/15 21:40:46;;;;;;;2.38;1.60;;;;;;;;;;12872858;23;20048;-78
2023/10/15 21:45:49;;;;;;;3.67;1.85;;;;;;;;;;12885362;23;20031;-78
2023/10/15 21:50:54;;;;;;;1.75;1.33;;;;;;;;;;12861083;23;20072;-78
2023/10/15 21:55:57;;;;;;;2.65;1.30;;;;;;;;;;12869051;23;20507;-78
2023/10/15 22:01:00;;;;;;;2.10;1.50;;;;;;;;;;12869983;23;20542;-78
2023/10/15 22:06:05;;;;;;;2.22;1.52;;;;;;;;;;12867980;23;20359;-78
2023/10/15 22:11:10;;;;;;;1.65;1.27;;;;;;;;;;12868503;23;20024;-78
2023/10/15 22:16:13;;;;;;;2.05;1.48;;;;;;;;;;12868697;23;20021;-78
2023/10/15 22:21:18;;;;;;;4.30;1.88;;;;;;;;;;12857962;23;20116;-78
2023/10/15 22:26:23;;;;;;;2.22;1.10;;;;;;;;;;12866696;23;20037;-78
2023/10/15 22:31:26;;;;;;;1.90;1.23;;;;;;;;;;12855871;23;20059;-78
2023/10/15 22:36:31;;;;;;;3.22;1.23;;;;;;;;;;12864845;23;20111;-78
2023/10/15 22:41:34;;;;;;;1.35;1.00;;;;;;;;;;12864598;23;20450;-78
2023/10/15 22:46:38;;;;;;;1.25;1.13;;;;;;;;;;12856983;23;20043;-78
2023/10/15 22:51:43;;;;;;;2.22;1.30;;;;;;;;;;12866935;23;20499;-78
2023/10/15 22:56:49;;;;;;;1.75;1.13;;;;;;;;;;12858225;23;20024;-78
2023/10/15 23:01:53;;;;;;;3.42;1.05;;;;;;;;;;12865153;23;20045;-78
2023/10/15 23:06:57;;;;;;;4.95;1.67;;;;;;;;;;12858313;23;20044;-78
2023/10/15 23:12:00;;;;;;;1.15;0.90;;;;;;;;;;12856767;23;20039;-78
2023/10/15 23:17:07;;;;;;;2.30;1.10;;;;;;;;;;12864421;23;20376;-78
2023/10/15 23:22:12;;;;;;;1.98;0.80;;;;;;;;;;12863701;23;20020;-78
2023/10/15 23:27:15;;;;;;;1.40;1.00;;;;;;;;;;12856937;23;20464;-78
2023/10/15 23:32:19;;;;;;;2.50;1.02;;;;;;;;;;12863107;23;20432;-78
2023/10/15 23:37:24;;;;;;;1.63;1.00;;;;;;;;;;12862915;23;20055;-78
2023/10/15 23:42:27;;;;;;;1.50;0.85;;;;;;;;;;12879439;23;20083;-79
2023/10/15 23:47:30;;;;;;;1.30;1.00;;;;;;;;;;12875689;23;20031;-78
2023/10/15 23:52:38;;;;;;;1.40;0.95;;;;;;;;;;12861975;23;20048;-78
2023/10/15 23:57:48;;;;;;;1.85;1.10;;;;;;;;;;12861106;23;20031;-78
